sensor_id;sensor_type;location;lat;lon;timestamp;P1;durP1;ratioP1;P2;durP2;ratioP2
4375;SDS011;2202;50.866;12.750;2022-07-29T00:01:59;5.87;;;3.80;;
4375;SDS011;2202;50.866;12.750;2022-07-29T00:04:26;8.37;;;3.60;;
4375;SDS011;2202;50.866;12.750;2022-07-29T00:06:53;7.27;;;4.10;;
4375;SDS011;2202;50.866;12.750;2022-07-29T00:09:21;9.07;;;4.67;;
4375;SDS011;2202;50.866;12.750;2022-07-29T00:11:48;4.03;;;3.10;;
4375;SDS011;2202;50.866;12.750;2022-07-29T00:14:15;8.77;;;3.50;;
4375;SDS011;2202;50.866;12.750;2022-07-29T00:16:42;6.23;;;4.40;;
4375;SDS011;2202;50.866;12.750;2022-07-29T00:19:09;5.70;;;3.60;;
4375;SDS011;2202;50.866;12.750;2022-07-29T00:21:35;7.00;;;4.13;;
4375;SDS011;2202;50.866;12.750;2022-07-29T00:24:02;6.20;;;4.30;;
4375;SDS011;2202;50.866;12.750;2022-07-29T00:26:31;8.23;;;4.10;;
4375;SDS011;2202;50.866;12.750;2022-07-29T00:28:58;6.07;;;4.30;;
4375;SDS011;2202;50.866;12.750;2022-07-29T00:31:25;8.00;;;4.70;;
4375;SDS011;2202;50.866;12.750;2022-07-29T00:33:52;9.20;;;4.20;;
4375;SDS011;2202;50.866;12.750;2022-07-29T00:36:19;7.20;;;5.00;;
4375;SDS011;2202;50.866;12.750;2022-07-29T00:38:46;8.60;;;5.30;;
4375;SDS011;2202;50.866;12.750;2022-07-29T00:41:13;9.33;;;5.07;;
4375;SDS011;2202;50.866;12.750;2022-07-29T00:43:41;7.27;;;5.40;;
4375;SDS011;2202;50.866;12.750;2022-07-29T00:46:08;8.97;;;6.37;;
4375;SDS011;2202;50.866;12.750;2022-07-29T00:48:35;13.07;;;7.60;;
4375;SDS011;2202;50.866;12.750;2022-07-29T00:51:02;12.00;;;8.37;;
4375;SDS011;2202;50.866;12.750;2022-07-29T00:53:30;12.27;;;9.50;;
4375;SDS011;2202;50.866;12.750;2022-07-29T00:55:58;12.90;;;9.10;;
4375;SDS011;2202;50.866;12.750;2022-07-29T00:58:25;11.63;;;9.10;;
4375;SDS011;2202;50.866;12.750;2022-07-29T01:00:54;14.70;;;11.40;;
4375;SDS011;2202;50.866;12.750;2022-07-29T01:03:21;14.10;;;10.03;;
4375;SDS011;2202;50.866;12.750;2022-07-29T01:05:48;19.33;;;11.37;;
4375;SDS011;2202;50.866;12.750;2022-07-29T01:08:15;18.27;;;12.07;;
4375;SDS011;2202;50.866;12.750;2022-07-29T01:10:42;20.67;;;11.50;;
4375;SDS011;2202;50.866;12.750;2022-07-29T01:13:10;14.20;;;12.23;;
4375;SDS011;2202;50.866;12.750;2022-07-29T01:15:39;17.13;;;12.17;;
4375;SDS011;2202;50.866;12.750;2022-07-29T01:18:11;18.67;;;11.67;;
4375;SDS011;2202;50.866;12.750;2022-07-29T01:20:48;18.40;;;12.13;;
4375;SDS011;2202;50.866;12.750;2022-07-29T01:23:34;17.33;;;12.40;;
4375;SDS011;2202;50.866;12.750;2022-07-29T01:26:28;19.40;;;12.70;;
4375;SDS011;2202;50.866;12.750;2022-07-29T01:29:07;15.23;;;12.57;;
4375;SDS011;2202;50.866;12.750;2022-07-29T01:31:43;16.70;;;11.40;;
4375;SDS011;2202;50.866;12.750;2022-07-29T01:34:15;15.13;;;11.07;;
4375;SDS011;2202;50.866;12.750;2022-07-29T01:36:48;14.90;;;11.33;;
4375;SDS011;2202;50.866;12.750;2022-07-29T01:39:17;17.90;;;11.20;;
4375;SDS011;2202;50.866;12.750;2022-07-29T01:41:48;12.97;;;9.50;;
4375;SDS011;2202;50.866;12.750;2022-07-29T01:44:26;12.03;;;9.07;;
4375;SDS011;2202;50.866;12.750;2022-07-29T01:46:58;13.30;;;8.67;;
4375;SDS011;2202;50.866;12.750;2022-07-29T01:49:28;9.87;;;7.63;;
4375;SDS011;2202;50.866;12.750;2022-07-29T01:51:59;12.03;;;8.13;;
4375;SDS011;2202;50.866;12.750;2022-07-29T01:54:31;13.27;;;8.17;;
4375;SDS011;2202;50.866;12.750;2022-07-29T01:57:01;11.00;;;7.83;;
4375;SDS011;2202;50.866;12.750;2022-07-29T01:59:32;7.97;;;6.73;;
4375;SDS011;2202;50.866;12.750;2022-07-29T02:02:00;10.10;;;6.87;;
4375;SDS011;2202;50.866;12.750;2022-07-29T02:04:28;9.00;;;7.50;;
4375;SDS011;2202;50.866;12.750;2022-07-29T02:06:59;12.10;;;8.17;;
4375;SDS011;2202;50.866;12.750;2022-07-29T02:09:28;8.00;;;7.23;;
4375;SDS011;2202;50.866;12.750;2022-07-29T02:11:57;8.70;;;6.80;;
4375;SDS011;2202;50.866;12.750;2022-07-29T02:14:26;8.20;;;6.80;;
4375;SDS011;2202;50.866;12.750;2022-07-29T02:17:00;11.93;;;7.33;;
4375;SDS011;2202;50.866;12.750;2022-07-29T02:19:28;12.13;;;7.30;;
4375;SDS011;2202;50.866;12.750;2022-07-29T02:21:57;10.67;;;8.40;;
4375;SDS011;2202;50.866;12.750;2022-07-29T02:24:26;7.23;;;6.30;;
4375;SDS011;2202;50.866;12.750;2022-07-29T02:26:55;9.50;;;6.73;;
4375;SDS011;2202;50.866;12.750;2022-07-29T02:29:25;10.43;;;6.80;;
4375;SDS011;2202;50.866;12.750;2022-07-29T02:31:53;9.73;;;6.57;;
4375;SDS011;2202;50.866;12.750;2022-07-29T02:34:24;14.40;;;7.40;;
4375;SDS011;2202;50.866;12.750;2022-07-29T02:36:52;10.00;;;6.83;;
4375;SDS011;2202;50.866;12.750;2022-07-29T02:39:21;7.30;;;5.67;;
4375;SDS011;2202;50.866;12.750;2022-07-29T02:41:51;12.13;;;6.67;;
4375;SDS011;2202;50.866;12.750;2022-07-29T02:44:21;9.27;;;6.10;;
4375;SDS011;2202;50.866;12.750;2022-07-29T02:46:51;8.20;;;5.70;;
4375;SDS011;2202;50.866;12.750;2022-07-29T02:49:28;7.67;;;5.87;;
4375;SDS011;2202;50.866;12.750;2022-07-29T02:52:01;7.87;;;5.87;;
4375;SDS011;2202;50.866;12.750;2022-07-29T02:54:31;9.47;;;6.57;;
4375;SDS011;2202;50.866;12.750;2022-07-29T02:57:04;11.50;;;5.80;;
4375;SDS011;2202;50.866;12.750;2022-07-29T02:59:37;7.87;;;5.37;;
4375;SDS011;2202;50.866;12.750;2022-07-29T03:02:08;7.70;;;5.60;;
4375;SDS011;2202;50.866;12.750;2022-07-29T03:04:38;6.63;;;5.50;;
4375;SDS011;2202;50.866;12.750;2022-07-29T03:07:07;6.70;;;5.17;;
4375;SDS011;2202;50.866;12.750;2022-07-29T03:09:37;12.90;;;5.43;;
4375;SDS011;2202;50.866;12.750;2022-07-29T03:12:04;7.93;;;5.20;;
4375;SDS011;2202;50.866;12.750;2022-07-29T03:14:32;11.40;;;5.47;;
4375;SDS011;2202;50.866;12.750;2022-07-29T03:16:59;6.20;;;5.10;;
4375;SDS011;2202;50.866;12.750;2022-07-29T03:19:26;8.77;;;5.67;;
4375;SDS011;2202;50.866;12.750;2022-07-29T03:21:57;7.10;;;4.97;;
4375;SDS011;2202;50.866;12.750;2022-07-29T03:24:25;8.50;;;4.13;;
4375;SDS011;2202;50.866;12.750;2022-07-29T03:26:54;8.10;;;5.30;;
4375;SDS011;2202;50.866;12.750;2022-07-29T03:29:21;5.97;;;4.60;;
4375;SDS011;2202;50.866;12.750;2022-07-29T03:31:48;10.20;;;5.40;;
4375;SDS011;2202;50.866;12.750;2022-07-29T03:34:15;5.70;;;4.70;;
4375;SDS011;2202;50.866;12.750;2022-07-29T03:36:42;9.63;;;4.70;;
4375;SDS011;2202;50.866;12.750;2022-07-29T03:39:10;8.77;;;4.40;;
4375;SDS011;2202;50.866;12.750;2022-07-29T03:41:40;6.53;;;4.50;;
4375;SDS011;2202;50.866;12.750;2022-07-29T03:44:10;9.40;;;5.23;;
4375;SDS011;2202;50.866;12.750;2022-07-29T03:46:38;11.80;;;5.60;;
4375;SDS011;2202;50.866;12.750;2022-07-29T03:49:07;8.90;;;5.03;;
4375;SDS011;2202;50.866;12.750;2022-07-29T03:51:35;7.73;;;5.60;;
4375;SDS011;2202;50.866;12.750;2022-07-29T03:54:02;6.40;;;4.80;;
4375;SDS011;2202;50.866;12.750;2022-07-29T03:56:32;11.93;;;4.90;;
4375;SDS011;2202;50.866;12.750;2022-07-29T03:59:03;7.23;;;4.77;;
4375;SDS011;2202;50.866;12.750;2022-07-29T04:01:32;8.60;;;5.27;;
4375;SDS011;2202;50.866;12.750;2022-07-29T04:04:00;7.00;;;4.30;;
4375;SDS011;2202;50.866;12.750;2022-07-29T04:06:37;6.17;;;4.33;;
4375;SDS011;2202;50.866;12.750;2022-07-29T04:09:04;7.17;;;4.10;;
4375;SDS011;2202;50.866;12.750;2022-07-29T04:11:33;7.00;;;4.40;;
4375;SDS011;2202;50.866;12.750;2022-07-29T04:14:00;5.90;;;4.50;;
4375;SDS011;2202;50.866;12.750;2022-07-29T04:16:27;10.10;;;5.57;;
4375;SDS011;2202;50.866;12.750;2022-07-29T04:18:54;11.93;;;4.77;;
4375;SDS011;2202;50.866;12.750;2022-07-29T04:21:21;9.27;;;4.23;;
4375;SDS011;2202;50.866;12.750;2022-07-29T04:23:48;10.20;;;3.90;;
4375;SDS011;2202;50.866;12.750;2022-07-29T04:26:15;7.00;;;4.90;;
4375;SDS011;2202;50.866;12.750;2022-07-29T04:28:43;7.20;;;4.10;;
4375;SDS011;2202;50.866;12.750;2022-07-29T04:31:11;8.93;;;4.60;;
4375;SDS011;2202;50.866;12.750;2022-07-29T04:33:39;9.10;;;4.33;;
4375;SDS011;2202;50.866;12.750;2022-07-29T04:36:06;7.40;;;4.40;;
4375;SDS011;2202;50.866;12.750;2022-07-29T04:38:33;8.67;;;4.30;;
4375;SDS011;2202;50.866;12.750;2022-07-29T04:41:00;6.60;;;4.97;;
4375;SDS011;2202;50.866;12.750;2022-07-29T04:43:27;5.73;;;4.10;;
4375;SDS011;2202;50.866;12.750;2022-07-29T04:45:55;7.87;;;4.70;;
4375;SDS011;2202;50.866;12.750;2022-07-29T04:48:22;5.57;;;4.13;;
4375;SDS011;2202;50.866;12.750;2022-07-29T04:50:49;6.33;;;4.43;;
4375;SDS011;2202;50.866;12.750;2022-07-29T04:53:15;7.97;;;4.77;;
4375;SDS011;2202;50.866;12.750;2022-07-29T04:55:42;6.50;;;4.23;;
4375;SDS011;2202;50.866;12.750;2022-07-29T04:58:09;5.70;;;4.20;;
4375;SDS011;2202;50.866;12.750;2022-07-29T05:00:36;6.00;;;3.83;;
4375;SDS011;2202;50.866;12.750;2022-07-29T05:03:06;10.20;;;4.20;;
4375;SDS011;2202;50.866;12.750;2022-07-29T05:05:33;6.10;;;4.20;;
4375;SDS011;2202;50.866;12.750;2022-07-29T05:08:00;10.97;;;5.73;;
4375;SDS011;2202;50.866;12.750;2022-07-29T05:10:27;9.80;;;5.10;;
4375;SDS011;2202;50.866;12.750;2022-07-29T05:12:54;7.20;;;4.30;;
4375;SDS011;2202;50.866;12.750;2022-07-29T05:15:20;7.03;;;5.20;;
4375;SDS011;2202;50.866;12.750;2022-07-29T05:17:47;6.70;;;5.07;;
4375;SDS011;2202;50.866;12.750;2022-07-29T05:20:16;9.13;;;5.10;;
4375;SDS011;2202;50.866;12.750;2022-07-29T05:22:43;7.43;;;4.77;;
4375;SDS011;2202;50.866;12.750;2022-07-29T05:25:10;6.03;;;4.40;;
4375;SDS011;2202;50.866;12.750;2022-07-29T05:27:37;7.30;;;4.90;;
4375;SDS011;2202;50.866;12.750;2022-07-29T05:30:04;5.97;;;4.17;;
4375;SDS011;2202;50.866;12.750;2022-07-29T05:32:32;8.70;;;4.60;;
4375;SDS011;2202;50.866;12.750;2022-07-29T05:34:59;6.57;;;4.23;;
4375;SDS011;2202;50.866;12.750;2022-07-29T05:37:27;6.30;;;4.30;;
4375;SDS011;2202;50.866;12.750;2022-07-29T05:39:54;5.73;;;4.17;;
4375;SDS011;2202;50.866;12.750;2022-07-29T05:42:21;8.13;;;4.47;;
4375;SDS011;2202;50.866;12.750;2022-07-29T05:44:48;13.17;;;5.17;;
4375;SDS011;2202;50.866;12.750;2022-07-29T05:47:14;12.77;;;4.73;;
4375;SDS011;2202;50.866;12.750;2022-07-29T05:49:41;7.87;;;4.70;;
4375;SDS011;2202;50.866;12.750;2022-07-29T05:52:08;10.17;;;4.63;;
4375;SDS011;2202;50.866;12.750;2022-07-29T05:54:36;9.20;;;5.20;;
4375;SDS011;2202;50.866;12.750;2022-07-29T05:57:04;8.13;;;5.30;;
4375;SDS011;2202;50.866;12.750;2022-07-29T05:59:31;9.20;;;5.27;;
4375;SDS011;2202;50.866;12.750;2022-07-29T06:02:01;8.80;;;5.70;;
4375;SDS011;2202;50.866;12.750;2022-07-29T06:04:30;10.40;;;5.47;;
4375;SDS011;2202;50.866;12.750;2022-07-29T06:06:56;7.90;;;5.50;;
4375;SDS011;2202;50.866;12.750;2022-07-29T06:09:23;9.30;;;5.47;;
4375;SDS011;2202;50.866;12.750;2022-07-29T06:11:52;7.67;;;4.63;;
4375;SDS011;2202;50.866;12.750;2022-07-29T06:14:19;8.70;;;4.73;;
4375;SDS011;2202;50.866;12.750;2022-07-29T06:16:46;11.03;;;5.13;;
4375;SDS011;2202;50.866;12.750;2022-07-29T06:19:12;6.53;;;5.43;;
4375;SDS011;2202;50.866;12.750;2022-07-29T06:21:41;9.73;;;5.30;;
4375;SDS011;2202;50.866;12.750;2022-07-29T06:24:08;8.43;;;4.67;;
4375;SDS011;2202;50.866;12.750;2022-07-29T06:26:37;10.53;;;5.10;;
4375;SDS011;2202;50.866;12.750;2022-07-29T06:29:05;8.83;;;4.50;;
4375;SDS011;2202;50.866;12.750;2022-07-29T06:31:33;8.30;;;5.40;;
4375;SDS011;2202;50.866;12.750;2022-07-29T06:34:00;6.70;;;5.07;;
4375;SDS011;2202;50.866;12.750;2022-07-29T06:36:27;4.80;;;3.90;;
4375;SDS011;2202;50.866;12.750;2022-07-29T06:38:54;7.67;;;4.87;;
4375;SDS011;2202;50.866;12.750;2022-07-29T06:41:21;5.97;;;4.00;;
4375;SDS011;2202;50.866;12.750;2022-07-29T06:43:48;5.87;;;4.13;;
4375;SDS011;2202;50.866;12.750;2022-07-29T06:46:17;5.37;;;4.00;;
4375;SDS011;2202;50.866;12.750;2022-07-29T06:48:45;13.90;;;4.73;;
4375;SDS011;2202;50.866;12.750;2022-07-29T06:51:13;5.97;;;4.43;;
4375;SDS011;2202;50.866;12.750;2022-07-29T06:53:41;10.97;;;4.97;;
4375;SDS011;2202;50.866;12.750;2022-07-29T06:56:08;8.10;;;5.77;;
4375;SDS011;2202;50.866;12.750;2022-07-29T06:58:37;11.50;;;5.50;;
4375;SDS011;2202;50.866;12.750;2022-07-29T07:01:05;9.47;;;5.07;;
4375;SDS011;2202;50.866;12.750;2022-07-29T07:03:34;8.07;;;4.50;;
4375;SDS011;2202;50.866;12.750;2022-07-29T07:06:00;11.43;;;5.10;;
4375;SDS011;2202;50.866;12.750;2022-07-29T07:08:28;10.30;;;5.33;;
4375;SDS011;2202;50.866;12.750;2022-07-29T07:10:55;8.13;;;4.10;;
4375;SDS011;2202;50.866;12.750;2022-07-29T07:13:22;7.00;;;5.23;;
4375;SDS011;2202;50.866;12.750;2022-07-29T07:15:49;8.00;;;4.57;;
4375;SDS011;2202;50.866;12.750;2022-07-29T07:18:17;9.83;;;5.30;;
4375;SDS011;2202;50.866;12.750;2022-07-29T07:20:46;9.63;;;4.73;;
4375;SDS011;2202;50.866;12.750;2022-07-29T07:23:12;8.63;;;4.97;;
4375;SDS011;2202;50.866;12.750;2022-07-29T07:25:39;8.03;;;5.00;;
4375;SDS011;2202;50.866;12.750;2022-07-29T07:28:07;8.77;;;5.60;;
4375;SDS011;2202;50.866;12.750;2022-07-29T07:30:33;5.27;;;4.43;;
4375;SDS011;2202;50.866;12.750;2022-07-29T07:33:00;8.77;;;5.00;;
4375;SDS011;2202;50.866;12.750;2022-07-29T07:35:28;7.23;;;5.23;;
4375;SDS011;2202;50.866;12.750;2022-07-29T07:37:56;6.30;;;4.73;;
4375;SDS011;2202;50.866;12.750;2022-07-29T07:40:23;8.10;;;4.23;;
4375;SDS011;2202;50.866;12.750;2022-07-29T07:42:50;7.13;;;5.40;;
4375;SDS011;2202;50.866;12.750;2022-07-29T07:45:17;6.40;;;4.33;;
4375;SDS011;2202;50.866;12.750;2022-07-29T07:47:44;5.40;;;4.87;;
4375;SDS011;2202;50.866;12.750;2022-07-29T07:50:12;7.67;;;5.50;;
4375;SDS011;2202;50.866;12.750;2022-07-29T07:52:48;11.53;;;5.23;;
4375;SDS011;2202;50.866;12.750;2022-07-29T07:55:18;7.53;;;4.30;;
4375;SDS011;2202;50.866;12.750;2022-07-29T07:57:45;11.00;;;4.60;;
4375;SDS011;2202;50.866;12.750;2022-07-29T08:00:14;7.10;;;5.10;;
4375;SDS011;2202;50.866;12.750;2022-07-29T08:02:41;9.67;;;5.50;;
4375;SDS011;2202;50.866;12.750;2022-07-29T08:05:10;11.83;;;5.37;;
4375;SDS011;2202;50.866;12.750;2022-07-29T08:07:41;7.60;;;5.60;;
4375;SDS011;2202;50.866;12.750;2022-07-29T08:10:08;9.23;;;5.20;;
4375;SDS011;2202;50.866;12.750;2022-07-29T08:12:37;9.63;;;5.60;;
4375;SDS011;2202;50.866;12.750;2022-07-29T08:15:04;8.40;;;5.00;;
4375;SDS011;2202;50.866;12.750;2022-07-29T08:17:32;7.80;;;4.73;;
4375;SDS011;2202;50.866;12.750;2022-07-29T08:19:59;8.13;;;5.03;;
4375;SDS011;2202;50.866;12.750;2022-07-29T08:22:27;11.67;;;5.57;;
4375;SDS011;2202;50.866;12.750;2022-07-29T08:24:54;8.00;;;4.70;;
4375;SDS011;2202;50.866;12.750;2022-07-29T08:27:21;5.50;;;4.53;;
4375;SDS011;2202;50.866;12.750;2022-07-29T08:29:49;6.10;;;4.80;;
4375;SDS011;2202;50.866;12.750;2022-07-29T08:32:16;5.53;;;4.50;;
4375;SDS011;2202;50.866;12.750;2022-07-29T08:34:43;5.90;;;4.67;;
4375;SDS011;2202;50.866;12.750;2022-07-29T08:37:11;8.80;;;5.33;;
4375;SDS011;2202;50.866;12.750;2022-07-29T08:39:38;8.97;;;4.47;;
4375;SDS011;2202;50.866;12.750;2022-07-29T08:42:06;5.50;;;4.27;;
4375;SDS011;2202;50.866;12.750;2022-07-29T08:44:33;6.13;;;4.27;;
4375;SDS011;2202;50.866;12.750;2022-07-29T08:47:02;6.33;;;4.30;;
4375;SDS011;2202;50.866;12.750;2022-07-29T08:49:29;5.83;;;4.27;;
4375;SDS011;2202;50.866;12.750;2022-07-29T08:51:57;6.50;;;4.60;;
4375;SDS011;2202;50.866;12.750;2022-07-29T08:54:24;5.00;;;4.40;;
4375;SDS011;2202;50.866;12.750;2022-07-29T08:56:51;8.83;;;4.90;;
4375;SDS011;2202;50.866;12.750;2022-07-29T08:59:19;6.50;;;4.50;;
4375;SDS011;2202;50.866;12.750;2022-07-29T09:01:48;6.90;;;4.10;;
4375;SDS011;2202;50.866;12.750;2022-07-29T09:04:20;7.70;;;4.67;;
4375;SDS011;2202;50.866;12.750;2022-07-29T09:06:47;7.43;;;4.00;;
4375;SDS011;2202;50.866;12.750;2022-07-29T09:09:17;6.13;;;4.83;;
4375;SDS011;2202;50.866;12.750;2022-07-29T09:11:46;5.80;;;4.90;;
4375;SDS011;2202;50.866;12.750;2022-07-29T09:14:13;6.23;;;5.20;;
4375;SDS011;2202;50.866;12.750;2022-07-29T09:16:44;7.23;;;4.40;;
4375;SDS011;2202;50.866;12.750;2022-07-29T09:19:20;5.30;;;4.80;;
4375;SDS011;2202;50.866;12.750;2022-07-29T09:21:52;5.23;;;4.77;;
4375;SDS011;2202;50.866;12.750;2022-07-29T09:24:38;5.20;;;4.77;;
4375;SDS011;2202;50.866;12.750;2022-07-29T09:27:11;7.10;;;4.77;;
4375;SDS011;2202;50.866;12.750;2022-07-29T09:29:45;6.40;;;4.60;;
4375;SDS011;2202;50.866;12.750;2022-07-29T09:32:12;5.47;;;4.70;;
4375;SDS011;2202;50.866;12.750;2022-07-29T09:34:41;4.63;;;4.33;;
4375;SDS011;2202;50.866;12.750;2022-07-29T09:37:08;5.07;;;4.53;;
4375;SDS011;2202;50.866;12.750;2022-07-29T09:39:36;5.23;;;4.37;;
4375;SDS011;2202;50.866;12.750;2022-07-29T09:42:10;4.83;;;4.47;;
4375;SDS011;2202;50.866;12.750;2022-07-29T09:44:41;8.70;;;5.17;;
4375;SDS011;2202;50.866;12.750;2022-07-29T09:47:09;5.03;;;4.30;;
4375;SDS011;2202;50.866;12.750;2022-07-29T09:49:51;5.40;;;4.90;;
4375;SDS011;2202;50.866;12.750;2022-07-29T09:52:20;5.10;;;4.60;;
4375;SDS011;2202;50.866;12.750;2022-07-29T09:54:47;6.63;;;4.50;;
4375;SDS011;2202;50.866;12.750;2022-07-29T09:57:22;4.87;;;4.40;;
4375;SDS011;2202;50.866;12.750;2022-07-29T09:59:57;5.83;;;4.80;;
4375;SDS011;2202;50.866;12.750;2022-07-29T10:02:29;5.07;;;4.43;;
4375;SDS011;2202;50.866;12.750;2022-07-29T10:04:58;8.50;;;5.40;;
4375;SDS011;2202;50.866;12.750;2022-07-29T10:07:26;7.40;;;4.27;;
4375;SDS011;2202;50.866;12.750;2022-07-29T10:10:08;4.20;;;3.80;;
4375;SDS011;2202;50.866;12.750;2022-07-29T10:12:39;4.73;;;4.30;;
4375;SDS011;2202;50.866;12.750;2022-07-29T10:15:15;5.77;;;4.50;;
4375;SDS011;2202;50.866;12.750;2022-07-29T10:17:42;4.97;;;4.57;;
4375;SDS011;2202;50.866;12.750;2022-07-29T10:20:11;5.00;;;4.70;;
4375;SDS011;2202;50.866;12.750;2022-07-29T10:22:39;5.50;;;4.50;;
4375;SDS011;2202;50.866;12.750;2022-07-29T10:25:07;11.43;;;4.80;;
4375;SDS011;2202;50.866;12.750;2022-07-29T10:27:35;6.97;;;4.80;;
4375;SDS011;2202;50.866;12.750;2022-07-29T10:30:02;6.70;;;4.30;;
4375;SDS011;2202;50.866;12.750;2022-07-29T10:32:43;5.17;;;4.40;;
4375;SDS011;2202;50.866;12.750;2022-07-29T10:35:51;6.27;;;4.00;;
4375;SDS011;2202;50.866;12.750;2022-07-29T10:41:24;5.60;;;5.20;;
4375;SDS011;2202;50.866;12.750;2022-07-29T10:44:14;4.80;;;4.40;;
4375;SDS011;2202;50.866;12.750;2022-07-29T10:46:43;5.33;;;4.90;;
4375;SDS011;2202;50.866;12.750;2022-07-29T10:49:11;5.47;;;5.07;;
4375;SDS011;2202;50.866;12.750;2022-07-29T10:51:58;4.70;;;4.40;;
4375;SDS011;2202;50.866;12.750;2022-07-29T10:54:40;5.07;;;4.67;;
4375;SDS011;2202;50.866;12.750;2022-07-29T10:57:24;5.90;;;4.20;;
4375;SDS011;2202;50.866;12.750;2022-07-29T11:02:56;4.50;;;4.10;;
4375;SDS011;2202;50.866;12.750;2022-07-29T11:05:23;5.40;;;4.10;;
4375;SDS011;2202;50.866;12.750;2022-07-29T11:10:51;4.70;;;4.20;;
4375;SDS011;2202;50.866;12.750;2022-07-29T11:16:15;5.20;;;4.70;;
4375;SDS011;2202;50.866;12.750;2022-07-29T11:21:48;5.30;;;4.90;;
4375;SDS011;2202;50.866;12.750;2022-07-29T11:24:18;4.50;;;4.17;;
4375;SDS011;2202;50.866;12.750;2022-07-29T11:29:34;7.40;;;4.50;;
4375;SDS011;2202;50.866;12.750;2022-07-29T11:32:10;5.60;;;4.40;;
4375;SDS011;2202;50.866;12.750;2022-07-29T11:34:39;4.80;;;4.40;;
4375;SDS011;2202;50.866;12.750;2022-07-29T11:37:16;4.90;;;4.50;;
4375;SDS011;2202;50.866;12.750;2022-07-29T11:39:46;4.23;;;3.93;;
4375;SDS011;2202;50.866;12.750;2022-07-29T11:42:40;7.00;;;4.73;;
4375;SDS011;2202;50.866;12.750;2022-07-29T11:45:12;4.80;;;4.40;;
4375;SDS011;2202;50.866;12.750;2022-07-29T11:47:53;6.63;;;4.50;;
4375;SDS011;2202;50.866;12.750;2022-07-29T11:50:33;5.07;;;4.67;;
4375;SDS011;2202;50.866;12.750;2022-07-29T11:53:03;5.10;;;4.70;;
4375;SDS011;2202;50.866;12.750;2022-07-29T11:55:38;4.40;;;4.03;;
4375;SDS011;2202;50.866;12.750;2022-07-29T11:58:06;5.03;;;4.60;;
4375;SDS011;2202;50.866;12.750;2022-07-29T12:00:34;5.47;;;5.07;;
4375;SDS011;2202;50.866;12.750;2022-07-29T12:03:04;5.23;;;4.83;;
4375;SDS011;2202;50.866;12.750;2022-07-29T12:05:39;4.67;;;4.27;;
4375;SDS011;2202;50.866;12.750;2022-07-29T12:08:09;5.17;;;4.53;;
4375;SDS011;2202;50.866;12.750;2022-07-29T12:10:39;7.00;;;4.30;;
4375;SDS011;2202;50.866;12.750;2022-07-29T12:13:07;8.23;;;4.93;;
4375;SDS011;2202;50.866;12.750;2022-07-29T12:15:34;4.70;;;4.30;;
4375;SDS011;2202;50.866;12.750;2022-07-29T12:18:14;5.87;;;5.37;;
4375;SDS011;2202;50.866;12.750;2022-07-29T12:20:41;4.67;;;4.27;;
4375;SDS011;2202;50.866;12.750;2022-07-29T12:23:09;4.73;;;4.40;;
4375;SDS011;2202;50.866;12.750;2022-07-29T12:25:38;5.30;;;4.80;;
4375;SDS011;2202;50.866;12.750;2022-07-29T12:28:08;7.47;;;5.13;;
4375;SDS011;2202;50.866;12.750;2022-07-29T12:30:36;7.80;;;5.20;;
4375;SDS011;2202;50.866;12.750;2022-07-29T12:33:12;5.17;;;4.73;;
4375;SDS011;2202;50.866;12.750;2022-07-29T12:35:41;5.47;;;5.07;;
4375;SDS011;2202;50.866;12.750;2022-07-29T12:38:10;5.37;;;4.97;;
4375;SDS011;2202;50.866;12.750;2022-07-29T12:40:38;6.13;;;4.53;;
4375;SDS011;2202;50.866;12.750;2022-07-29T12:43:08;9.43;;;4.97;;
4375;SDS011;2202;50.866;12.750;2022-07-29T12:45:36;6.53;;;5.17;;
4375;SDS011;2202;50.866;12.750;2022-07-29T12:48:04;5.13;;;4.43;;
4375;SDS011;2202;50.866;12.750;2022-07-29T12:50:33;8.40;;;5.00;;
4375;SDS011;2202;50.866;12.750;2022-07-29T12:53:10;5.33;;;4.60;;
4375;SDS011;2202;50.866;12.750;2022-07-29T12:55:40;5.83;;;5.00;;
4375;SDS011;2202;50.866;12.750;2022-07-29T12:58:10;9.57;;;5.60;;
4375;SDS011;2202;50.866;12.750;2022-07-29T13:00:37;7.50;;;5.30;;
4375;SDS011;2202;50.866;12.750;2022-07-29T13:03:03;5.43;;;4.93;;
4375;SDS011;2202;50.866;12.750;2022-07-29T13:05:40;5.20;;;4.80;;
4375;SDS011;2202;50.866;12.750;2022-07-29T13:08:10;5.70;;;5.20;;
4375;SDS011;2202;50.866;12.750;2022-07-29T13:10:41;6.40;;;4.70;;
4375;SDS011;2202;50.866;12.750;2022-07-29T13:13:10;6.53;;;5.30;;
4375;SDS011;2202;50.866;12.750;2022-07-29T13:15:37;8.10;;;6.13;;
4375;SDS011;2202;50.866;12.750;2022-07-29T13:18:26;5.60;;;5.10;;
4375;SDS011;2202;50.866;12.750;2022-07-29T13:20:53;9.77;;;5.87;;
4375;SDS011;2202;50.866;12.750;2022-07-29T13:23:20;10.53;;;7.03;;
4375;SDS011;2202;50.866;12.750;2022-07-29T13:25:48;7.50;;;6.80;;
4375;SDS011;2202;50.866;12.750;2022-07-29T13:28:15;7.80;;;7.07;;
4375;SDS011;2202;50.866;12.750;2022-07-29T13:30:42;9.97;;;7.07;;
4375;SDS011;2202;50.866;12.750;2022-07-29T13:33:09;14.23;;;7.40;;
4375;SDS011;2202;50.866;12.750;2022-07-29T13:35:36;11.93;;;7.30;;
4375;SDS011;2202;50.866;12.750;2022-07-29T13:38:03;7.77;;;6.77;;
4375;SDS011;2202;50.866;12.750;2022-07-29T13:40:30;8.20;;;7.00;;
4375;SDS011;2202;50.866;12.750;2022-07-29T13:43:01;15.30;;;7.00;;
4375;SDS011;2202;50.866;12.750;2022-07-29T13:45:28;13.50;;;7.23;;
4375;SDS011;2202;50.866;12.750;2022-07-29T13:47:55;7.03;;;6.33;;
4375;SDS011;2202;50.866;12.750;2022-07-29T13:50:22;10.87;;;7.20;;
4375;SDS011;2202;50.866;12.750;2022-07-29T13:52:49;7.73;;;6.30;;
4375;SDS011;2202;50.866;12.750;2022-07-29T13:55:16;8.17;;;6.17;;
4375;SDS011;2202;50.866;12.750;2022-07-29T13:57:43;10.30;;;5.80;;
4375;SDS011;2202;50.866;12.750;2022-07-29T14:00:12;9.00;;;7.40;;
4375;SDS011;2202;50.866;12.750;2022-07-29T14:02:40;7.27;;;6.13;;
4375;SDS011;2202;50.866;12.750;2022-07-29T14:05:07;9.67;;;6.50;;
4375;SDS011;2202;50.866;12.750;2022-07-29T14:07:35;7.77;;;6.93;;
4375;SDS011;2202;50.866;12.750;2022-07-29T14:10:04;10.37;;;6.67;;
4375;SDS011;2202;50.866;12.750;2022-07-29T14:12:31;11.80;;;7.13;;
4375;SDS011;2202;50.866;12.750;2022-07-29T14:14:58;7.40;;;6.70;;
4375;SDS011;2202;50.866;12.750;2022-07-29T14:17:27;8.73;;;6.30;;
4375;SDS011;2202;50.866;12.750;2022-07-29T14:19:54;9.83;;;6.80;;
4375;SDS011;2202;50.866;12.750;2022-07-29T14:22:21;10.53;;;6.90;;
4375;SDS011;2202;50.866;12.750;2022-07-29T14:24:47;7.20;;;6.50;;
4375;SDS011;2202;50.866;12.750;2022-07-29T14:27:14;8.30;;;7.13;;
4375;SDS011;2202;50.866;12.750;2022-07-29T14:29:41;11.07;;;7.10;;
4375;SDS011;2202;50.866;12.750;2022-07-29T14:32:09;8.07;;;7.23;;
4375;SDS011;2202;50.866;12.750;2022-07-29T14:34:37;9.07;;;7.37;;
4375;SDS011;2202;50.866;12.750;2022-07-29T14:37:05;9.37;;;7.07;;
4375;SDS011;2202;50.866;12.750;2022-07-29T14:39:34;13.60;;;8.13;;
4375;SDS011;2202;50.866;12.750;2022-07-29T14:42:02;13.33;;;7.50;;
4375;SDS011;2202;50.866;12.750;2022-07-29T14:44:29;8.70;;;7.80;;
4375;SDS011;2202;50.866;12.750;2022-07-29T14:46:57;10.70;;;7.60;;
4375;SDS011;2202;50.866;12.750;2022-07-29T14:49:24;8.67;;;7.53;;
4375;SDS011;2202;50.866;12.750;2022-07-29T14:51:52;11.13;;;8.07;;
4375;SDS011;2202;50.866;12.750;2022-07-29T14:54:19;10.47;;;8.17;;
4375;SDS011;2202;50.866;12.750;2022-07-29T14:56:46;9.77;;;8.53;;
4375;SDS011;2202;50.866;12.750;2022-07-29T14:59:14;10.53;;;8.80;;
4375;SDS011;2202;50.866;12.750;2022-07-29T15:01:41;14.20;;;9.97;;
4375;SDS011;2202;50.866;12.750;2022-07-29T15:04:08;13.90;;;10.90;;
4375;SDS011;2202;50.866;12.750;2022-07-29T15:06:34;12.90;;;10.50;;
4375;SDS011;2202;50.866;12.750;2022-07-29T15:09:04;14.17;;;10.43;;
4375;SDS011;2202;50.866;12.750;2022-07-29T15:11:31;13.30;;;10.37;;
4375;SDS011;2202;50.866;12.750;2022-07-29T15:13:58;12.60;;;9.70;;
4375;SDS011;2202;50.866;12.750;2022-07-29T15:16:24;15.33;;;9.10;;
4375;SDS011;2202;50.866;12.750;2022-07-29T15:18:51;17.47;;;7.97;;
4375;SDS011;2202;50.866;12.750;2022-07-29T15:21:18;12.43;;;8.50;;
4375;SDS011;2202;50.866;12.750;2022-07-29T15:23:45;11.40;;;8.97;;
4375;SDS011;2202;50.866;12.750;2022-07-29T15:26:13;11.37;;;7.40;;
4375;SDS011;2202;50.866;12.750;2022-07-29T15:28:40;11.73;;;6.80;;